Time;durP1;ratioP1;P1;durP2;ratioP2;P2;SDS_P1;SDS_P2;PMS_P1;PMS_P2;Temp;Humidity;BMP_temperature;BMP_pressure;BME280_temperature;BME280_humidity;BME280_pressure;Samples;Min_cycle;Max_cycle;Signal;HPM_P1;HPM_P2
2024/04/08 00:00:18;;;;;;;10.75;4.45;;;;;;;;;;5482610;26;25097;-64
2024/04/08 00:02:44;;;;;;;15.75;4.05;;;;;;;;;;5478432;26;25038;-63
2024/04/08 00:05:10;;;;;;;10.65;3.90;;;;;;;;;;5470457;26;25060;-63
2024/04/08 00:07:36;;;;;;;9.43;3.97;;;;;;;;;;5474975;26;25034;-64
2024/04/08 00:10:03;;;;;;;9.80;4.78;;;;;;;;;;5475561;26;25043;-63
2024/04/08 00:12:29;;;;;;;12.95;4.30;;;;;;;;;;5476606;26;25107;-63
2024/04/08 00:14:56;;;;;;;11.68;4.13;;;;;;;;;;5480310;26;25060;-63
2024/04/08 00:17:22;;;;;;;14.75;4.75;;;;;;;;;;5479412;26;25047;-63
2024/04/08 00:19:47;;;;;;;13.05;4.63;;;;;;;;;;5478830;26;25072;-63
2024/04/08 00:22:13;;;;;;;11.35;4.22;;;;;;;;;;5459217;26;25158;-63
2024/04/08 00:24:39;;;;;;;12.88;5.10;;;;;;;;;;5482465;26;25056;-64
2024/04/08 00:27:05;;;;;;;14.88;4.50;;;;;;;;;;5481838;26;25103;-63
2024/04/08 00:29:31;;;;;;;12.77;4.40;;;;;;;;;;5486167;26;25059;-63
2024/04/08 00:31:57;;;;;;;10.20;4.38;;;;;;;;;;5487596;26;25061;-64
2024/04/08 00:34:23;;;;;;;7.80;3.70;;;;;;;;;;5484888;26;25069;-64
2024/04/08 00:36:49;;;;;;;8.27;4.07;;;;;;;;;;5446144;26;25032;-63
2024/04/08 00:39:15;;;;;;;9.40;4.00;;;;;;;;;;5477977;26;25026;-64
2024/04/08 00:41:41;;;;;;;10.30;3.70;;;;;;;;;;5482889;25;25053;-64
2024/04/08 00:44:07;;;;;;;10.55;3.95;;;;;;;;;;5487077;25;25056;-63
2024/04/08 00:46:33;;;;;;;10.75;3.78;;;;;;;;;;5482222;26;25039;-63
2024/04/08 00:49:00;;;;;;;5.78;3.40;;;;;;;;;;5452976;26;25052;-64
2024/04/08 00:51:26;;;;;;;4.68;3.63;;;;;;;;;;5482033;26;25059;-63
2024/04/08 00:53:52;;;;;;;9.82;3.83;;;;;;;;;;5449149;26;25137;-63
2024/04/08 00:56:19;;;;;;;11.23;4.55;;;;;;;;;;5449044;26;25067;-63
2024/04/08 00:58:46;;;;;;;6.30;4.30;;;;;;;;;;5447800;26;25059;-63
2024/04/08 01:01:18;;;;;;;6.97;4.30;;;;;;;;;;5476589;26;25056;-63
2024/04/08 01:03:45;;;;;;;8.35;4.93;;;;;;;;;;5482835;26;25057;-63
2024/04/08 01:06:14;;;;;;;7.68;4.63;;;;;;;;;;5471449;26;25032;-63
2024/04/08 01:08:40;;;;;;;7.63;4.75;;;;;;;;;;5418792;26;25130;-63
2024/04/08 01:11:10;;;;;;;7.30;4.93;;;;;;;;;;5466398;26;25035;-64
2024/04/08 01:13:36;;;;;;;10.13;4.53;;;;;;;;;;5477688;26;25043;-63
2024/04/08 01:16:02;;;;;;;9.52;4.88;;;;;;;;;;5471721;26;25045;-62
2024/04/08 01:18:28;;;;;;;8.23;4.85;;;;;;;;;;5470884;26;25106;-65
2024/04/08 01:20:54;;;;;;;8.07;5.38;;;;;;;;;;5473054;26;25046;-64
2024/04/08 01:23:21;;;;;;;7.60;5.18;;;;;;;;;;5477570;26;25042;-63
2024/04/08 01:25:47;;;;;;;9.65;5.55;;;;;;;;;;5478680;26;25056;-63
2024/04/08 01:28:13;;;;;;;8.85;5.85;;;;;;;;;;5467287;26;25062;-63
2024/04/08 01:30:39;;;;;;;10.10;5.68;;;;;;;;;;5476873;25;25049;-65
2024/04/08 01:33:05;;;;;;;8.68;5.95;;;;;;;;;;5468840;26;25033;-64
2024/04/08 01:35:31;;;;;;;11.95;6.10;;;;;;;;;;5474842;25;25044;-64
2024/04/08 01:37:57;;;;;;;7.82;5.55;;;;;;;;;;5470173;26;25052;-64
2024/04/08 01:40:23;;;;;;;10.35;6.60;;;;;;;;;;5473697;26;25109;-64
2024/04/08 01:42:49;;;;;;;7.85;5.63;;;;;;;;;;5472097;26;25148;-63
2024/04/08 01:45:16;;;;;;;8.75;6.43;;;;;;;;;;5477736;26;25052;-63
2024/04/08 01:47:42;;;;;;;13.40;6.35;;;;;;;;;;5470580;26;25102;-64
2024/04/08 01:50:08;;;;;;;11.10;6.10;;;;;;;;;;5473231;26;25041;-64
2024/04/08 01:52:34;;;;;;;8.07;6.32;;;;;;;;;;5482484;26;25061;-63
2024/04/08 01:55:00;;;;;;;14.13;6.03;;;;;;;;;;5474196;26;25038;-64
2024/04/08 01:57:27;;;;;;;11.95;6.03;;;;;;;;;;5470441;26;25141;-64
2024/04/08 01:59:53;;;;;;;7.32;5.70;;;;;;;;;;5463765;26;25091;-63
2024/04/08 02:02:19;;;;;;;10.95;6.85;;;;;;;;;;5470803;26;25103;-64
2024/04/08 02:04:45;;;;;;;9.60;6.20;;;;;;;;;;5475644;26;25036;-63
2024/04/08 02:07:11;;;;;;;12.63;6.72;;;;;;;;;;5478210;26;25056;-63
2024/04/08 02:09:37;;;;;;;9.30;6.75;;;;;;;;;;5469913;26;25102;-63
2024/04/08 02:12:03;;;;;;;8.13;5.80;;;;;;;;;;5474784;26;25050;-63
2024/04/08 02:14:29;;;;;;;11.98;7.10;;;;;;;;;;5470094;26;25049;-63
2024/04/08 02:16:55;;;;;;;8.07;6.55;;;;;;;;;;5474633;25;25133;-62
2024/04/08 02:19:24;;;;;;;8.70;6.25;;;;;;;;;;5475010;26;25120;-62
2024/04/08 02:21:50;;;;;;;10.93;6.38;;;;;;;;;;5476129;26;25048;-66
2024/04/08 02:24:17;;;;;;;10.60;6.47;;;;;;;;;;5476523;26;25112;-63
2024/04/08 02:26:43;;;;;;;12.18;6.45;;;;;;;;;;5471980;26;25051;-64
2024/04/08 02:29:09;;;;;;;11.07;6.70;;;;;;;;;;5473233;26;25036;-63
2024/04/08 02:31:35;;;;;;;10.65;6.03;;;;;;;;;;5471691;26;25114;-63
2024/04/08 02:34:01;;;;;;;9.80;6.95;;;;;;;;;;5469990;26;25060;-63
2024/04/08 02:36:28;;;;;;;11.63;6.78;;;;;;;;;;5471680;26;25042;-64
2024/04/08 02:38:54;;;;;;;9.77;5.88;;;;;;;;;;5469875;26;25114;-63
2024/04/08 02:41:20;;;;;;;10.30;6.50;;;;;;;;;;5475649;25;25048;-64
2024/04/08 02:43:46;;;;;;;11.70;6.60;;;;;;;;;;5476530;26;25116;-62
2024/04/08 02:46:12;;;;;;;8.23;6.07;;;;;;;;;;5495995;25;25047;-65
2024/04/08 02:48:38;;;;;;;10.95;6.40;;;;;;;;;;5469986;25;25056;-64
2024/04/08 02:51:05;;;;;;;10.82;5.88;;;;;;;;;;5482924;26;25104;-65
2024/04/08 02:53:33;;;;;;;10.63;6.32;;;;;;;;;;5479099;26;25044;-63
2024/04/08 02:56:00;;;;;;;8.57;6.35;;;;;;;;;;5474518;26;25050;-62
2024/04/08 02:58:26;;;;;;;10.40;6.55;;;;;;;;;;5480219;26;25055;-65
2024/04/08 03:00:52;;;;;;;12.45;6.22;;;;;;;;;;5464027;26;25069;-65
2024/04/08 03:03:19;;;;;;;9.68;6.05;;;;;;;;;;5474761;26;25046;-62
2024/04/08 03:05:45;;;;;;;9.55;6.30;;;;;;;;;;5480193;26;25048;-64
2024/04/08 03:08:11;;;;;;;9.80;6.40;;;;;;;;;;5484224;25;25058;-63
2024/04/08 03:10:37;;;;;;;11.40;7.00;;;;;;;;;;5481181;26;25076;-63
2024/04/08 03:13:04;;;;;;;10.98;6.82;;;;;;;;;;5477230;26;25118;-63
2024/04/08 03:15:30;;;;;;;9.45;7.07;;;;;;;;;;5483099;26;25073;-63
2024/04/08 03:17:56;;;;;;;7.57;5.95;;;;;;;;;;5479943;26;25050;-63
2024/04/08 03:20:22;;;;;;;9.93;6.45;;;;;;;;;;5477237;25;25120;-64
2024/04/08 03:22:48;;;;;;;8.77;6.22;;;;;;;;;;5473597;26;25063;-63
2024/04/08 03:25:14;;;;;;;9.93;6.35;;;;;;;;;;5480782;26;25098;-63
2024/04/08 03:27:41;;;;;;;8.50;6.47;;;;;;;;;;5483588;25;25050;-63
2024/04/08 03:30:08;;;;;;;9.55;6.20;;;;;;;;;;5480487;26;25050;-62
2024/04/08 03:32:34;;;;;;;8.38;7.07;;;;;;;;;;5474350;26;25061;-63
2024/04/08 03:35:00;;;;;;;12.27;7.00;;;;;;;;;;5474502;26;25047;-63
2024/04/08 03:37:26;;;;;;;9.60;6.13;;;;;;;;;;5477058;26;25037;-63
2024/04/08 03:39:52;;;;;;;12.32;6.38;;;;;;;;;;5480182;26;25059;-64
2024/04/08 03:42:21;;;;;;;12.93;6.03;;;;;;;;;;5476776;26;25058;-63
2024/04/08 03:44:48;;;;;;;8.77;6.70;;;;;;;;;;5465980;26;25049;-63
2024/04/08 03:47:14;;;;;;;9.38;6.40;;;;;;;;;;5475690;25;25044;-66
2024/04/08 03:49:40;;;;;;;9.40;6.07;;;;;;;;;;5479330;26;25044;-64
2024/04/08 03:52:06;;;;;;;9.45;6.72;;;;;;;;;;5469238;26;25054;-63
2024/04/08 03:54:32;;;;;;;9.25;7.32;;;;;;;;;;5465752;26;25067;-64
2024/04/08 03:56:59;;;;;;;12.82;6.78;;;;;;;;;;5470931;26;25050;-63
2024/04/08 03:59:25;;;;;;;10.45;6.95;;;;;;;;;;5473741;26;25077;-64
2024/04/08 04:01:51;;;;;;;13.70;6.90;;;;;;;;;;5473475;26;25118;-62
2024/04/08 04:04:17;;;;;;;7.80;5.65;;;;;;;;;;5488043;25;25063;-63
2024/04/08 04:06:43;;;;;;;8.70;5.30;;;;;;;;;;5481083;26;25042;-63
2024/04/08 04:09:11;;;;;;;10.75;6.10;;;;;;;;;;5476750;26;25040;-64
2024/04/08 04:11:37;;;;;;;9.52;6.10;;;;;;;;;;5486512;25;25053;-63
2024/04/08 04:14:04;;;;;;;7.10;5.55;;;;;;;;;;5468964;26;25085;-63
2024/04/08 04:16:30;;;;;;;9.10;5.05;;;;;;;;;;5474270;26;25053;-65
2024/04/08 04:18:56;;;;;;;8.32;5.20;;;;;;;;;;5490007;26;25055;-64
2024/04/08 04:21:22;;;;;;;12.82;6.15;;;;;;;;;;5462441;26;25047;-63
2024/04/08 04:23:48;;;;;;;6.15;5.45;;;;;;;;;;5474971;26;25048;-64
2024/04/08 04:26:14;;;;;;;9.88;5.68;;;;;;;;;;5481065;26;25060;-63
2024/04/08 04:28:41;;;;;;;6.57;5.43;;;;;;;;;;5466428;26;25078;-64
2024/04/08 04:31:07;;;;;;;7.47;5.63;;;;;;;;;;5476595;26;25064;-64
2024/04/08 04:33:33;;;;;;;10.07;5.38;;;;;;;;;;5473067;26;25051;-66
2024/04/08 04:36:00;;;;;;;7.95;5.80;;;;;;;;;;5445266;26;25062;-63
2024/04/08 04:38:26;;;;;;;12.85;5.65;;;;;;;;;;5479366;26;25049;-64
2024/04/08 04:40:59;;;;;;;7.00;5.40;;;;;;;;;;5478272;25;25050;-64
2024/04/08 04:43:26;;;;;;;7.45;4.93;;;;;;;;;;5485306;26;25035;-64
2024/04/08 04:45:51;;;;;;;8.05;5.28;;;;;;;;;;5473150;26;25052;-64
2024/04/08 04:48:18;;;;;;;7.07;4.80;;;;;;;;;;5477228;26;25044;-63
2024/04/08 04:50:44;;;;;;;8.45;5.35;;;;;;;;;;5467248;26;25068;-65
2024/04/08 04:53:09;;;;;;;6.07;4.85;;;;;;;;;;5472967;25;25064;-63
2024/04/08 04:55:36;;;;;;;7.20;5.13;;;;;;;;;;5472548;26;25115;-64
2024/04/08 04:58:02;;;;;;;9.98;5.47;;;;;;;;;;5479180;26;25058;-64
2024/04/08 05:00:31;;;;;;;7.32;5.38;;;;;;;;;;5465851;26;25040;-64
2024/04/08 05:02:57;;;;;;;7.57;4.97;;;;;;;;;;5473609;26;25141;-64
2024/04/08 05:05:23;;;;;;;8.95;5.53;;;;;;;;;;5475763;26;25041;-64
2024/04/08 05:07:49;;;;;;;11.20;5.70;;;;;;;;;;5480393;26;25031;-64
2024/04/08 05:10:15;;;;;;;8.90;5.85;;;;;;;;;;5487615;25;25063;-63
2024/04/08 05:12:41;;;;;;;9.32;5.60;;;;;;;;;;5470866;26;25056;-64
2024/04/08 05:15:10;;;;;;;9.65;5.28;;;;;;;;;;5478177;26;25060;-64
2024/04/08 05:17:36;;;;;;;7.30;5.72;;;;;;;;;;5473099;26;25064;-62
2024/04/08 05:20:03;;;;;;;7.95;5.38;;;;;;;;;;5472141;25;25024;-63
2024/04/08 05:22:30;;;;;;;10.60;5.07;;;;;;;;;;5467304;26;25054;-64
2024/04/08 05:24:56;;;;;;;7.35;4.93;;;;;;;;;;5473409;26;25133;-64
2024/04/08 05:27:23;;;;;;;10.82;5.28;;;;;;;;;;5468539;25;25055;-65
2024/04/08 05:29:49;;;;;;;8.90;5.47;;;;;;;;;;5461987;26;25086;-64
2024/04/08 05:32:15;;;;;;;9.27;5.40;;;;;;;;;;5472682;26;25056;-65
2024/04/08 05:34:41;;;;;;;5.78;5.18;;;;;;;;;;5479606;26;25082;-64
2024/04/08 05:37:07;;;;;;;8.52;5.25;;;;;;;;;;5491296;25;25050;-64
2024/04/08 05:39:34;;;;;;;8.02;5.55;;;;;;;;;;5472264;25;25055;-65
2024/04/08 05:42:00;;;;;;;7.80;5.00;;;;;;;;;;5472443;26;25095;-64
2024/04/08 05:44:26;;;;;;;8.43;5.65;;;;;;;;;;5473045;26;25033;-65
2024/04/08 05:46:52;;;;;;;9.75;5.32;;;;;;;;;;5483148;26;25093;-64
2024/04/08 05:49:18;;;;;;;8.68;5.63;;;;;;;;;;5478156;26;25034;-64
2024/04/08 05:51:44;;;;;;;7.38;5.82;;;;;;;;;;5480179;26;25034;-64
2024/04/08 05:54:10;;;;;;;7.32;5.13;;;;;;;;;;5479293;26;25098;-64
2024/04/08 05:56:36;;;;;;;8.18;5.32;;;;;;;;;;5481541;26;25055;-64
2024/04/08 05:59:02;;;;;;;7.30;5.53;;;;;;;;;;5459593;26;25037;-64
2024/04/08 06:01:28;;;;;;;9.48;5.20;;;;;;;;;;5478971;26;25039;-65
2024/04/08 06:03:54;;;;;;;8.30;5.63;;;;;;;;;;5480831;26;25032;-63
2024/04/08 06:06:20;;;;;;;7.60;5.88;;;;;;;;;;5476550;25;25037;-64
2024/04/08 06:08:57;;;;;;;10.20;5.30;;;;;;;;;;5492854;26;25072;-64
2024/04/08 06:11:23;;;;;;;8.02;5.35;;;;;;;;;;5474792;26;25072;-63
2024/04/08 06:13:49;;;;;;;7.03;5.50;;;;;;;;;;5489323;26;25105;-64
2024/04/08 06:16:15;;;;;;;11.05;6.35;;;;;;;;;;5481919;25;25046;-64
2024/04/08 06:18:41;;;;;;;6.97;5.65;;;;;;;;;;5482353;26;25069;-64
2024/04/08 06:21:07;;;;;;;10.45;5.88;;;;;;;;;;5477851;26;25098;-64
2024/04/08 06:23:33;;;;;;;8.25;5.82;;;;;;;;;;5477852;26;25075;-64
2024/04/08 06:25:59;;;;;;;8.85;6.28;;;;;;;;;;5489342;25;25060;-63
2024/04/08 06:28:25;;;;;;;9.63;6.32;;;;;;;;;;5480933;25;25081;-63
2024/04/08 06:30:51;;;;;;;7.55;6.03;;;;;;;;;;5486639;26;25037;-63
2024/04/08 06:33:17;;;;;;;10.73;6.72;;;;;;;;;;5480357;26;25107;-63
2024/04/08 06:35:44;;;;;;;6.97;5.55;;;;;;;;;;5488795;25;25056;-62
2024/04/08 06:38:12;;;;;;;10.35;6.43;;;;;;;;;;5476502;26;25107;-63
2024/04/08 06:40:38;;;;;;;11.10;6.38;;;;;;;;;;5482587;26;25068;-64
2024/04/08 06:43:04;;;;;;;9.88;6.60;;;;;;;;;;5471164;26;25047;-63
2024/04/08 06:45:30;;;;;;;10.32;5.85;;;;;;;;;;5470476;26;25114;-63
2024/04/08 06:47:56;;;;;;;9.00;5.90;;;;;;;;;;5488120;25;25139;-64
2024/04/08 06:50:22;;;;;;;8.20;5.88;;;;;;;;;;5478407;26;25065;-64
2024/04/08 06:52:48;;;;;;;8.65;6.43;;;;;;;;;;5480828;25;25076;-65
2024/04/08 06:55:16;;;;;;;12.95;6.75;;;;;;;;;;5485666;26;25034;-63
2024/04/08 06:57:42;;;;;;;13.18;6.30;;;;;;;;;;5481313;26;25083;-63
2024/04/08 07:00:09;;;;;;;14.82;6.10;;;;;;;;;;5481616;25;25088;-63
2024/04/08 07:02:36;;;;;;;9.20;6.43;;;;;;;;;;5483714;26;25113;-64
2024/04/08 07:05:02;;;;;;;11.48;7.68;;;;;;;;;;5492371;26;25054;-64
2024/04/08 07:07:28;;;;;;;12.80;7.75;;;;;;;;;;5479335;26;25064;-64
2024/04/08 07:09:54;;;;;;;10.65;7.50;;;;;;;;;;5482103;26;25035;-63
2024/04/08 07:12:20;;;;;;;13.48;8.15;;;;;;;;;;5495622;25;25053;-63
2024/04/08 07:14:46;;;;;;;7.70;6.40;;;;;;;;;;5483162;26;25050;-63
2024/04/08 07:17:12;;;;;;;9.35;7.20;;;;;;;;;;5490281;26;25040;-62
2024/04/08 07:19:38;;;;;;;12.20;7.43;;;;;;;;;;5477262;26;25051;-65
2024/04/08 07:22:04;;;;;;;11.50;8.15;;;;;;;;;;5478391;26;25062;-64
2024/04/08 07:24:30;;;;;;;13.02;8.98;;;;;;;;;;5497440;25;25052;-65
2024/04/08 07:26:56;;;;;;;12.38;9.27;;;;;;;;;;5491210;26;25072;-64
2024/04/08 07:29:22;;;;;;;10.63;8.63;;;;;;;;;;5487128;26;25062;-64
2024/04/08 07:31:48;;;;;;;15.55;11.70;;;;;;;;;;5481725;26;25047;-63
2024/04/08 07:34:14;;;;;;;17.30;12.77;;;;;;;;;;5479278;26;25053;-65
2024/04/08 07:36:40;;;;;;;16.42;11.77;;;;;;;;;;5481748;26;25091;-64
2024/04/08 07:39:07;;;;;;;16.38;11.82;;;;;;;;;;5477560;26;25072;-63
2024/04/08 07:41:34;;;;;;;13.75;10.63;;;;;;;;;;5447735;26;25122;-65
2024/04/08 07:44:00;;;;;;;16.77;11.73;;;;;;;;;;5472381;26;25058;-65
2024/04/08 07:46:26;;;;;;;13.65;11.43;;;;;;;;;;5483437;26;25121;-63
2024/04/08 07:48:53;;;;;;;13.38;9.95;;;;;;;;;;5480518;26;25038;-63
2024/04/08 07:51:19;;;;;;;15.25;9.18;;;;;;;;;;5474851;26;25054;-64
2024/04/08 07:53:45;;;;;;;9.60;7.80;;;;;;;;;;5488405;26;25033;-63
2024/04/08 07:56:11;;;;;;;9.50;7.35;;;;;;;;;;5472235;25;25085;-65
2024/04/08 07:58:37;;;;;;;14.32;10.82;;;;;;;;;;5477227;25;25097;-64
2024/04/08 08:01:07;;;;;;;15.70;10.60;;;;;;;;;;5473221;26;25110;-62
2024/04/08 08:03:33;;;;;;;13.90;10.02;;;;;;;;;;5474773;26;25053;-64
2024/04/08 08:05:59;;;;;;;12.88;10.93;;;;;;;;;;5477118;26;25043;-66
2024/04/08 08:08:25;;;;;;;12.85;11.23;;;;;;;;;;5480767;26;25058;-65
2024/04/08 08:10:52;;;;;;;13.90;9.90;;;;;;;;;;5474891;26;25099;-66
2024/04/08 08:13:18;;;;;;;14.20;10.18;;;;;;;;;;5480916;26;25053;-63
2024/04/08 08:15:53;;;;;;;14.73;10.10;;;;;;;;;;5478784;26;25054;-65
2024/04/08 08:18:19;;;;;;;13.15;10.23;;;;;;;;;;5471297;26;25130;-65
2024/04/08 08:20:45;;;;;;;12.65;8.52;;;;;;;;;;5476471;26;25088;-64
2024/04/08 08:23:11;;;;;;;13.00;9.13;;;;;;;;;;5476126;25;25047;-63
2024/04/08 08:25:37;;;;;;;16.38;9.63;;;;;;;;;;5473556;26;25068;-64
2024/04/08 08:28:03;;;;;;;10.55;8.95;;;;;;;;;;5484841;25;25073;-63
2024/04/08 08:30:29;;;;;;;10.65;8.02;;;;;;;;;;5487783;25;25072;-63
2024/04/08 08:32:55;;;;;;;12.43;7.68;;;;;;;;;;5479654;25;25033;-64
2024/04/08 08:35:21;;;;;;;21.23;10.05;;;;;;;;;;5481730;26;25075;-64
2024/04/08 08:37:47;;;;;;;11.70;8.43;;;;;;;;;;5479296;26;25032;-63
2024/04/08 08:40:13;;;;;;;13.30;8.93;;;;;;;;;;5477594;26;25059;-63
2024/04/08 08:42:39;;;;;;;9.82;6.88;;;;;;;;;;5480858;26;25051;-64
2024/04/08 08:45:06;;;;;;;7.90;6.65;;;;;;;;;;5487424;26;25052;-64
2024/04/08 08:47:33;;;;;;;7.63;6.00;;;;;;;;;;5478827;26;25053;-64
2024/04/08 08:50:02;;;;;;;9.13;6.05;;;;;;;;;;5481344;25;25065;-63
2024/04/08 08:52:28;;;;;;;9.07;5.93;;;;;;;;;;5479710;26;25043;-64
2024/04/08 08:54:54;;;;;;;8.27;5.28;;;;;;;;;;5479571;26;25058;-65
2024/04/08 08:57:21;;;;;;;8.82;5.40;;;;;;;;;;5476767;26;25041;-63
2024/04/08 08:59:49;;;;;;;8.75;5.43;;;;;;;;;;5471530;26;25048;-64
2024/04/08 09:02:15;;;;;;;7.80;5.47;;;;;;;;;;5487342;26;25025;-62
2024/04/08 09:04:42;;;;;;;6.20;5.43;;;;;;;;;;5484523;26;25061;-64
2024/04/08 09:07:08;;;;;;;6.88;5.95;;;;;;;;;;5485948;26;25140;-63
2024/04/08 09:09:34;;;;;;;9.10;5.40;;;;;;;;;;5475351;26;25060;-64
2024/04/08 09:12:00;;;;;;;8.07;5.30;;;;;;;;;;5467250;25;25060;-64
2024/04/08 09:14:30;;;;;;;7.00;5.05;;;;;;;;;;5484801;26;25028;-64
2024/04/08 09:17:09;;;;;;;8.02;5.90;;;;;;;;;;5473910;26;25061;-63
2024/04/08 09:19:35;;;;;;;10.07;6.00;;;;;;;;;;5476747;26;25055;-65
2024/04/08 09:22:03;;;;;;;9.80;6.18;;;;;;;;;;5477863;26;25074;-64
2024/04/08 09:24:30;;;;;;;9.32;5.32;;;;;;;;;;5475578;26;25043;-65
2024/04/08 09:26:56;;;;;;;6.63;5.43;;;;;;;;;;5481430;26;25420;-65
2024/04/08 09:29:22;;;;;;;9.57;5.75;;;;;;;;;;5474720;26;25048;-63
2024/04/08 09:31:49;;;;;;;8.90;5.70;;;;;;;;;;5476318;26;25086;-63
2024/04/08 09:34:15;;;;;;;6.80;4.95;;;;;;;;;;5483207;26;25059;-63
2024/04/08 09:36:41;;;;;;;7.80;4.30;;;;;;;;;;5478949;25;25087;-63
2024/04/08 09:39:09;;;;;;;7.13;4.82;;;;;;;;;;5474409;26;25260;-64
2024/04/08 09:41:36;;;;;;;6.97;4.80;;;;;;;;;;5478716;26;25073;-64
2024/04/08 09:44:08;;;;;;;7.57;4.25;;;;;;;;;;5474869;26;25053;-64
2024/04/08 09:46:35;;;;;;;4.35;3.58;;;;;;;;;;5469959;26;25027;-64
2024/04/08 09:49:03;;;;;;;7.05;4.38;;;;;;;;;;5475240;26;25064;-65
2024/04/08 09:51:30;;;;;;;6.30;3.83;;;;;;;;;;5474411;25;25044;-64
2024/04/08 09:53:57;;;;;;;5.68;3.95;;;;;;;;;;5475972;26;25105;-65
2024/04/08 09:56:23;;;;;;;9.15;4.03;;;;;;;;;;5477331;25;25102;-65
2024/04/08 09:59:12;;;;;;;5.47;4.25;;;;;;;;;;5479897;25;25089;-63
2024/04/08 10:01:38;;;;;;;6.43;4.50;;;;;;;;;;5456467;26;25061;-65
2024/04/08 10:04:13;;;;;;;5.65;4.60;;;;;;;;;;5477966;26;25059;-64
2024/04/08 10:06:39;;;;;;;6.43;3.95;;;;;;;;;;5473339;26;25117;-63
2024/04/08 10:09:05;;;;;;;9.68;4.45;;;;;;;;;;5480192;26;25052;-63
2024/04/08 10:11:32;;;;;;;8.20;4.10;;;;;;;;;;5479080;25;25139;-64
2024/04/08 10:13:58;;;;;;;7.07;3.35;;;;;;;;;;5480187;26;25060;-65
2024/04/08 10:16:24;;;;;;;6.40;2.80;;;;;;;;;;5476430;26;25093;-64
2024/04/08 10:18:54;;;;;;;4.57;2.53;;;;;;;;;;5489509;26;25038;-65
2024/04/08 10:21:21;;;;;;;6.63;2.65;;;;;;;;;;5462829;26;25056;-65
2024/04/08 10:23:47;;;;;;;5.70;2.45;;;;;;;;;;5479281;25;25123;-63
2024/04/08 10:26:14;;;;;;;6.65;3.03;;;;;;;;;;5473093;26;25044;-65
2024/04/08 10:28:41;;;;;;;4.10;2.08;;;;;;;;;;5482967;26;25063;-65
2024/04/08 10:31:07;;;;;;;4.80;2.25;;;;;;;;;;5485791;26;25103;-64
2024/04/08 10:33:33;;;;;;;3.88;2.60;;;;;;;;;;5479601;26;25099;-63
2024/04/08 10:35:59;;;;;;;5.82;2.10;;;;;;;;;;5484022;26;25050;-65
2024/04/08 10:38:27;;;;;;;5.07;1.88;;;;;;;;;;5486022;26;25021;-63
2024/04/08 10:40:54;;;;;;;5.72;1.70;;;;;;;;;;5478914;26;25110;-65
2024/04/08 10:43:22;;;;;;;3.95;1.90;;;;;;;;;;5474119;26;25040;-66
2024/04/08 10:45:49;;;;;;;9.82;2.95;;;;;;;;;;5475172;26;25102;-63
2024/04/08 10:48:16;;;;;;;4.47;2.15;;;;;;;;;;5473906;25;25040;-64
2024/04/08 10:50:45;;;;;;;4.25;2.00;;;;;;;;;;5467244;26;25064;-63
2024/04/08 10:53:11;;;;;;;2.90;2.20;;;;;;;;;;5485772;26;25040;-62
2024/04/08 10:55:37;;;;;;;13.57;2.30;;;;;;;;;;5476905;26;25060;-65
2024/04/08 10:58:03;;;;;;;4.15;2.13;;;;;;;;;;5476426;26;25047;-65
2024/04/08 11:00:31;;;;;;;3.53;1.60;;;;;;;;;;5486255;26;25061;-64
2024/04/08 11:02:58;;;;;;;4.63;1.88;;;;;;;;;;5483026;25;25057;-63
2024/04/08 11:05:24;;;;;;;4.18;2.10;;;;;;;;;;5488375;26;25079;-65
2024/04/08 11:07:50;;;;;;;3.83;1.88;;;;;;;;;;5487963;25;25057;-65
2024/04/08 11:10:20;;;;;;;3.13;1.80;;;;;;;;;;5488522;26;25028;-65
2024/04/08 11:12:46;;;;;;;3.10;1.75;;;;;;;;;;5485445;26;25059;-64
2024/04/08 11:15:13;;;;;;;6.55;2.00;;;;;;;;;;5478953;25;25119;-65
2024/04/08 11:17:40;;;;;;;3.58;2.05;;;;;;;;;;5476605;26;25107;-67
2024/04/08 11:20:06;;;;;;;2.92;2.05;;;;;;;;;;5481681;26;25058;-65
2024/04/08 11:22:33;;;;;;;3.15;1.70;;;;;;;;;;5484005;26;25042;-64
2024/04/08 11:24:59;;;;;;;4.03;2.00;;;;;;;;;;5479833;25;25110;-65
2024/04/08 11:27:28;;;;;;;4.93;2.20;;;;;;;;;;5483728;26;25058;-65
2024/04/08 11:29:55;;;;;;;3.40;1.88;;;;;;;;;;5480347;25;25048;-65
2024/04/08 11:32:21;;;;;;;7.15;2.50;;;;;;;;;;5477025;26;25064;-64
2024/04/08 11:34:47;;;;;;;6.75;2.00;;;;;;;;;;5479598;26;25105;-64
2024/04/08 11:37:13;;;;;;;2.65;1.98;;;;;;;;;;5477490;26;25050;-63
2024/04/08 11:39:40;;;;;;;2.97;2.20;;;;;;;;;;5482143;26;25130;-66
2024/04/08 11:42:07;;;;;;;5.00;2.83;;;;;;;;;;5478804;26;25068;-65
2024/04/08 11:44:37;;;;;;;3.25;2.00;;;;;;;;;;5479605;26;25056;-64
2024/04/08 11:47:03;;;;;;;3.50;2.15;;;;;;;;;;5480099;26;25101;-63
2024/04/08 11:49:31;;;;;;;3.42;1.98;;;;;;;;;;5485908;26;25061;-64
2024/04/08 11:51:57;;;;;;;6.57;2.72;;;;;;;;;;5473143;26;25052;-66
2024/04/08 11:54:23;;;;;;;2.53;2.13;;;;;;;;;;5470731;26;25072;-65
2024/04/08 11:56:50;;;;;;;3.15;2.20;;;;;;;;;;5475804;26;25070;-63
2024/04/08 11:59:16;;;;;;;4.15;2.40;;;;;;;;;;5478431;26;25065;-65
2024/04/08 12:01:42;;;;;;;3.47;2.22;;;;;;;;;;5471625;26;25142;-64
2024/04/08 12:04:08;;;;;;;4.70;2.13;;;;;;;;;;5480276;26;25080;-66
2024/04/08 12:06:34;;;;;;;4.57;2.40;;;;;;;;;;5479413;26;25048;-65
2024/04/08 12:09:00;;;;;;;5.88;2.25;;;;;;;;;;5477383;26;25046;-63
2024/04/08 12:11:26;;;;;;;5.53;2.40;;;;;;;;;;5479224;26;25048;-65
2024/04/08 12:13:52;;;;;;;3.22;2.13;;;;;;;;;;5479341;26;25047;-63
2024/04/08 12:16:18;;;;;;;3.58;1.80;;;;;;;;;;5481352;26;25052;-64
2024/04/08 12:18:44;;;;;;;5.40;2.25;;;;;;;;;;5489157;26;25115;-64
2024/04/08 12:21:10;;;;;;;4.05;2.00;;;;;;;;;;5491303;25;25033;-65
2024/04/08 12:23:37;;;;;;;5.25;2.17;;;;;;;;;;5488258;26;25062;-64
2024/04/08 12:26:03;;;;;;;5.75;2.00;;;;;;;;;;5486460;26;25051;-64
2024/04/08 12:28:29;;;;;;;4.95;1.92;;;;;;;;;;5478710;26;25032;-64
2024/04/08 12:30:55;;;;;;;2.63;1.75;;;;;;;;;;5481469;26;25096;-64
2024/04/08 12:33:21;;;;;;;5.60;2.58;;;;;;;;;;5479787;26;25057;-65
2024/04/08 12:35:47;;;;;;;3.45;1.77;;;;;;;;;;5477682;26;25056;-64
2024/04/08 12:38:13;;;;;;;2.50;1.67;;;;;;;;;;5477860;26;25082;-65
2024/04/08 12:40:40;;;;;;;5.07;1.40;;;;;;;;;;5474713;25;25054;-64
2024/04/08 12:43:06;;;;;;;4.05;1.83;;;;;;;;;;5481223;26;25051;-64
2024/04/08 12:45:32;;;;;;;3.90;1.63;;;;;;;;;;5479242;26;25065;-64
2024/04/08 12:47:58;;;;;;;3.53;1.58;;;;;;;;;;5482338;26;25062;-65
2024/04/08 12:50:24;;;;;;;6.05;1.88;;;;;;;;;;5476852;26;25112;-65
2024/04/08 12:52:51;;;;;;;3.47;1.60;;;;;;;;;;5471780;25;25039;-65
2024/04/08 12:55:17;;;;;;;5.40;1.65;;;;;;;;;;5473102;26;25083;-65
2024/04/08 12:57:43;;;;;;;3.47;1.80;;;;;;;;;;5469267;26;25129;-64
2024/04/08 13:00:09;;;;;;;8.30;2.05;;;;;;;;;;5465498;25;25088;-64
2024/04/08 13:02:36;;;;;;;5.20;2.30;;;;;;;;;;5468566;26;25043;-66
2024/04/08 13:05:02;;;;;;;3.63;2.05;;;;;;;;;;5477005;26;25048;-64
2024/04/08 13:07:29;;;;;;;4.07;1.73;;;;;;;;;;5474610;25;25152;-64
2024/04/08 13:09:55;;;;;;;5.40;2.38;;;;;;;;;;5478215;26;25159;-64
2024/04/08 13:12:22;;;;;;;3.78;1.35;;;;;;;;;;5463200;26;25045;-64
2024/04/08 13:14:48;;;;;;;4.35;1.63;;;;;;;;;;5476874;26;25060;-64
2024/04/08 13:17:14;;;;;;;3.28;1.77;;;;;;;;;;5465726;25;25071;-62
2024/04/08 13:19:40;;;;;;;2.95;1.60;;;;;;;;;;5474370;26;25142;-66
2024/04/08 13:22:06;;;;;;;2.22;1.27;;;;;;;;;;5474407;26;25109;-65
2024/04/08 13:24:32;;;;;;;3.83;1.20;;;;;;;;;;5477909;26;25052;-64
2024/04/08 13:26:58;;;;;;;2.60;1.55;;;;;;;;;;5480383;26;25075;-62
2024/04/08 13:29:24;;;;;;;3.10;1.48;;;;;;;;;;5470623;25;25065;-65
2024/04/08 13:31:50;;;;;;;3.63;1.50;;;;;;;;;;5470049;26;25096;-65
2024/04/08 13:34:16;;;;;;;2.72;1.30;;;;;;;;;;5478879;26;25054;-63
2024/04/08 13:36:42;;;;;;;3.58;1.85;;;;;;;;;;5467983;26;25095;-64
2024/04/08 13:39:08;;;;;;;4.97;1.95;;;;;;;;;;5479100;26;25059;-64
2024/04/08 13:41:34;;;;;;;3.97;1.83;;;;;;;;;;5479790;26;25053;-65
2024/04/08 13:44:00;;;;;;;2.05;1.77;;;;;;;;;;5486211;26;25093;-65
2024/04/08 13:46:27;;;;;;;4.38;2.05;;;;;;;;;;5446860;26;25040;-64
2024/04/08 13:48:53;;;;;;;2.67;1.40;;;;;;;;;;5473521;26;25078;-65
2024/04/08 13:51:19;;;;;;;3.75;1.52;;;;;;;;;;5480577;26;25120;-66
2024/04/08 13:53:45;;;;;;;8.48;1.77;;;;;;;;;;5465434;26;25061;-64
2024/04/08 13:56:11;;;;;;;4.03;1.88;;;;;;;;;;5471767;26;25089;-64
2024/04/08 13:58:37;;;;;;;3.17;1.92;;;;;;;;;;5474777;26;25052;-65
2024/04/08 14:01:03;;;;;;;3.55;1.50;;;;;;;;;;5472483;26;25118;-65
2024/04/08 14:03:29;;;;;;;6.22;1.58;;;;;;;;;;5474066;26;25040;-64
2024/04/08 14:05:56;;;;;;;11.25;1.95;;;;;;;;;;5473221;26;25058;-65
2024/04/08 14:08:22;;;;;;;5.60;2.78;;;;;;;;;;5474711;26;25064;-64
2024/04/08 14:10:49;;;;;;;3.13;1.80;;;;;;;;;;5481884;26;25061;-65
2024/04/08 14:13:15;;;;;;;3.15;1.70;;;;;;;;;;5476794;26;25123;-65
2024/04/08 14:15:44;;;;;;;4.05;1.73;;;;;;;;;;5470642;26;25075;-65
2024/04/08 14:18:10;;;;;;;2.72;1.42;;;;;;;;;;5476709;26;25063;-65
2024/04/08 14:20:36;;;;;;;4.28;1.58;;;;;;;;;;5473505;26;25036;-65
2024/04/08 14:23:02;;;;;;;5.15;1.85;;;;;;;;;;5498519;26;25043;-66
2024/04/08 14:25:29;;;;;;;4.15;1.48;;;;;;;;;;5476078;26;25037;-64
2024/04/08 14:27:55;;;;;;;3.00;1.50;;;;;;;;;;5495290;26;25100;-64
2024/04/08 14:30:21;;;;;;;4.63;1.67;;;;;;;;;;5466871;26;25059;-66
2024/04/08 14:32:47;;;;;;;5.10;1.55;;;;;;;;;;5469641;26;25025;-65